Terminal Aerodrome Forecast
Issued by NWS Blacksburg, VA

Current Version | Previous Version | Graphics & Text | Print | Product List | Glossary On
Versions: 1 2 3 4 5 6 7 8 9 10 11 12 13 14 15 16 17 18 19 20 21 22 23 24 25
000
FTUS41 KRNK 140704 AAB
TAFBLF
TAF AMD
KBLF 140704Z 1407/1506 15004KT P6SM SCT025
     FM140900 15004KT P6SM BKN022
      TEMPO 1410/1412 BKN015
     FM141400 19004KT P6SM OVC045
     FM150100 19004KT P6SM FEW250=

USA.gov is the U.S. government's official web portal to all federal, state and local government web resources and services.